Terminal Aerodrome Forecast
Issued by NWS Knoxville/Tri Cities, TN

Home | Current Version | Previous Version | Text Only | Print | Product List | Glossary On
Versions: 1 2 3 4 5 6 7 8 9 10 11 12 13 14 15 16 17 18 19 20 21 22 23 24 25 26
000
FTUS44 KMRX 291306 AAA
TAFTYS
TAF AMD
KTYS 291306Z 2913/3012 35004KT P6SM SCT040
      TEMPO 2913/2914 30004KT P6SM FEW004 BKN007 OVC250
     FM300300 00000KT P6SM SCT050=

USA.gov is the U.S. government's official web portal to all federal, state and local government web resources and services.